Time;durP1;ratioP1;P1;durP2;ratioP2;P2;SDS_P1;SDS_P2;PMS_P1;PMS_P2;Temp;Humidity;BMP_temperature;BMP_pressure;BME280_temperature;BME280_humidity;BME280_pressure;Samples;Min_cycle;Max_cycle;Signal;HPM_P1;HPM_P2
2022/12/01 00:01:17;;;;;;;79.32;34.90;;;4.20;99.90;;;;;;5074030;28;20195;-48
2022/12/01 00:03:43;;;;;;;65.80;35.17;;;3.80;99.90;;;;;;5074048;28;20215;-49
2022/12/01 00:06:14;;;;;;;69.43;35.83;;;4.10;99.90;;;;;;5074139;28;20199;-49
2022/12/01 00:10:24;;;;;;;65.25;34.60;;;4.10;99.90;;;;;;5073332;28;20203;-49
2022/12/01 00:11:30;;;;;;;64.65;34.15;;;3.70;99.90;;;;;;5073869;28;20298;-50
2022/12/01 00:13:56;;;;;;;74.37;34.13;;;3.80;99.90;;;;;;5073849;28;20286;-49
2022/12/01 00:16:23;;;;;;;70.85;35.67;;;3.80;99.90;;;;;;5073822;28;20436;-50
2022/12/01 00:18:51;;;;;;;68.15;35.67;;;3.70;99.90;;;;;;5073199;28;20207;-49
2022/12/01 00:21:19;;;;;;;68.80;34.63;;;3.60;99.90;;;;;;5073883;28;20206;-49
2022/12/01 00:23:48;;;;;;;76.60;36.53;;;3.60;99.90;;;;;;5073540;28;20222;-48
2022/12/01 00:26:15;;;;;;;77.10;38.38;;;3.80;99.90;;;;;;5073467;28;20215;-50
2022/12/01 00:28:42;;;;;;;74.70;37.75;;;3.70;99.90;;;;;;5073148;28;20668;-48
2022/12/01 00:31:09;;;;;;;75.68;36.55;;;3.30;99.90;;;;;;5073409;28;20199;-48
2022/12/01 00:33:36;;;;;;;79.43;37.72;;;3.80;99.90;;;;;;5055447;28;20225;-50
2022/12/01 00:36:03;;;;;;;73.78;36.80;;;4.10;99.90;;;;;;5073425;28;20230;-50
2022/12/01 00:38:31;;;;;;;73.57;37.13;;;4.00;99.90;;;;;;5072825;28;20192;-49
2022/12/01 00:40:58;;;;;;;75.95;36.42;;;3.80;99.90;;;;;;5073532;28;20230;-49
2022/12/01 00:43:25;;;;;;;74.40;38.88;;;3.70;99.90;;;;;;5073095;28;20227;-48
2022/12/01 00:45:52;;;;;;;73.25;38.20;;;3.80;99.90;;;;;;5073394;28;20195;-49
2022/12/01 00:48:20;;;;;;;82.63;40.30;;;3.80;99.90;;;;;;5073260;28;20196;-49
2022/12/01 00:50:47;;;;;;;81.03;39.03;;;3.90;99.90;;;;;;5072914;28;20199;-49
2022/12/01 00:53:14;;;;;;;90.50;39.33;;;4.10;99.90;;;;;;5073048;28;20215;-48
2022/12/01 00:55:40;;;;;;;83.63;41.45;;;3.90;99.90;;;;;;5072272;28;20749;-48
2022/12/01 00:58:08;;;;;;;72.88;39.08;;;4.00;99.90;;;;;;5073339;28;20195;-50
2022/12/01 01:00:37;;;;;;;84.20;39.15;;;4.10;99.90;;;;;;5072688;28;20230;-49
2022/12/01 01:03:04;;;;;;;75.15;39.13;;;4.20;99.90;;;;;;5072910;28;20211;-49
2022/12/01 01:05:31;;;;;;;83.13;39.05;;;3.40;99.90;;;;;;5072933;28;20196;-49
2022/12/01 01:07:57;;;;;;;85.13;39.03;;;3.80;99.90;;;;;;5072898;28;20203;-48
2022/12/01 01:10:24;;;;;;;81.07;40.25;;;3.80;99.90;;;;;;5072520;28;20227;-49
2022/12/01 01:12:52;;;;;;;74.07;36.28;;;3.90;99.90;;;;;;5072841;28;20207;-48
2022/12/01 01:15:20;;;;;;;85.20;38.65;;;4.10;99.90;;;;;;5073037;28;20215;-48
2022/12/01 01:17:47;;;;;;;80.50;37.15;;;4.00;99.90;;;;;;5072917;28;20210;-48
2022/12/01 01:20:13;;;;;;;77.72;34.92;;;3.90;99.90;;;;;;5072076;28;20660;-49
2022/12/01 01:22:40;;;;;;;79.30;38.35;;;4.10;99.90;;;;;;5073583;28;20226;-48
2022/12/01 01:25:07;;;;;;;77.75;38.05;;;4.10;99.90;;;;;;5055426;28;20207;-48
2022/12/01 01:27:34;;;;;;;83.00;38.35;;;4.20;99.90;;;;;;5073886;28;20195;-49
2022/12/01 01:30:00;;;;;;;75.78;35.88;;;4.10;99.90;;;;;;5072882;28;20739;-48
2022/12/01 01:32:28;;;;;;;78.68;37.05;;;4.10;99.90;;;;;;5072548;28;20222;-49
2022/12/01 01:34:55;;;;;;;78.47;37.10;;;4.30;99.90;;;;;;5054289;28;20230;-49
2022/12/01 01:37:22;;;;;;;78.63;39.58;;;4.20;99.90;;;;;;5072510;28;20203;-48
2022/12/01 01:39:48;;;;;;;77.65;35.33;;;4.10;99.90;;;;;;5071928;28;20219;-48
2022/12/01 01:42:18;;;;;;;80.30;37.25;;;4.10;99.90;;;;;;5072378;28;20191;-50
2022/12/01 01:44:50;;;;;;;88.10;40.05;;;4.10;99.90;;;;;;5072752;28;20187;-47
2022/12/01 01:47:20;;;;;;;90.38;39.20;;;4.20;99.90;;;;;;5072063;28;20199;-48
2022/12/01 01:49:48;;;;;;;88.30;38.47;;;3.90;99.90;;;;;;5071427;28;20203;-49
2022/12/01 01:52:16;;;;;;;84.10;38.95;;;3.90;99.90;;;;;;5071968;28;20301;-49
2022/12/01 01:54:47;;;;;;;85.55;37.25;;;4.10;99.90;;;;;;5071936;28;20517;-49
2022/12/01 01:57:19;;;;;;;88.70;38.47;;;4.00;99.90;;;;;;5053829;28;20199;-48
2022/12/01 01:59:48;;;;;;;81.13;37.20;;;4.40;99.90;;;;;;5053042;28;20203;-49
2022/12/01 02:02:15;;;;;;;87.55;38.63;;;4.10;99.90;;;;;;5071355;28;20204;-49
2022/12/01 02:04:45;;;;;;;87.05;40.78;;;3.50;99.90;;;;;;5071663;28;20199;-51
2022/12/01 02:07:16;;;;;;;84.22;39.08;;;4.20;99.90;;;;;;5052637;28;20842;-49
2022/12/01 02:09:43;;;;;;;90.95;40.35;;;4.20;99.90;;;;;;5070993;28;20236;-50
2022/12/01 02:12:20;;;;;;;79.82;36.78;;;3.80;99.90;;;;;;5071803;28;20210;-49
2022/12/01 02:15:04;;;;;;;84.28;40.95;;;4.10;99.90;;;;;;5071532;28;20198;-49
2022/12/01 02:17:41;;;;;;;79.10;38.03;;;4.00;99.90;;;;;;5071678;28;20569;-50
2022/12/01 02:24:02;;;;;;;70.90;34.47;;;3.80;99.90;;;;;;5029143;28;20229;-49
2022/12/01 02:26:39;;;;;;;82.57;37.17;;;3.90;99.90;;;;;;5020436;28;20293;-48
2022/12/01 02:29:31;;;;;;;84.88;36.33;;;3.80;99.90;;;;;;5071572;28;20731;-50
2022/12/01 02:32:07;;;;;;;83.53;36.92;;;3.90;99.90;;;;;;5071815;28;20187;-48
2022/12/01 02:34:42;;;;;;;81.22;39.22;;;3.90;99.90;;;;;;5071864;28;20191;-47
2022/12/01 02:37:18;;;;;;;78.22;36.47;;;4.00;99.90;;;;;;5071842;28;20195;-48
2022/12/01 02:39:55;;;;;;;87.90;36.97;;;4.00;99.90;;;;;;5071212;28;20191;-49
2022/12/01 02:45:22;;;;;;;85.50;39.63;;;3.90;99.90;;;;;;5071608;28;20627;-49
2022/12/01 02:47:52;;;;;;;90.85;39.22;;;3.90;99.90;;;;;;5071872;28;20201;-48
2022/12/01 02:50:22;;;;;;;90.82;40.47;;;3.90;99.90;;;;;;5070902;28;20229;-49
2022/12/01 02:52:49;;;;;;;95.90;40.00;;;3.80;99.90;;;;;;5053200;28;20227;-48
2022/12/01 02:55:15;;;;;;;96.30;42.47;;;4.00;99.90;;;;;;5071420;28;20225;-49
2022/12/01 02:57:42;;;;;;;93.57;39.42;;;4.00;99.90;;;;;;5071266;28;20567;-49
2022/12/01 03:00:12;;;;;;;94.35;40.35;;;3.80;99.90;;;;;;5070476;28;20675;-48
2022/12/01 03:02:48;;;;;;;96.47;42.08;;;3.90;99.90;;;;;;5071142;28;20272;-49
2022/12/01 03:05:23;;;;;;;92.65;41.78;;;4.00;99.90;;;;;;5071237;28;20530;-49
2022/12/01 03:07:59;;;;;;;84.85;40.28;;;3.80;99.90;;;;;;5071074;28;20205;-49
2022/12/01 03:10:31;;;;;;;95.97;38.08;;;3.90;99.90;;;;;;5070375;28;20199;-49
2022/12/01 03:13:13;;;;;;;98.50;41.42;;;4.20;99.90;;;;;;5070987;28;20241;-49
2022/12/01 03:15:48;;;;;;;80.05;38.40;;;3.90;99.90;;;;;;5070996;28;20215;-48
2022/12/01 03:18:23;;;;;;;86.97;39.95;;;3.80;99.90;;;;;;5071349;28;20647;-49
2022/12/01 03:20:59;;;;;;;87.78;39.58;;;3.60;99.90;;;;;;5074806;28;20309;-48
2022/12/01 03:23:28;;;;;;;90.82;41.28;;;4.10;99.90;;;;;;5074635;28;20226;-48
2022/12/01 03:25:59;;;;;;;89.00;41.75;;;4.00;99.90;;;;;;5074842;28;20660;-48
2022/12/01 03:28:33;;;;;;;96.60;40.50;;;4.10;99.90;;;;;;5074172;28;20198;-49
2022/12/01 03:31:04;;;;;;;96.68;40.60;;;3.80;99.90;;;;;;5074680;28;20198;-49
2022/12/01 03:33:34;;;;;;;96.90;41.60;;;3.90;99.90;;;;;;5074489;28;20272;-49
2022/12/01 03:36:07;;;;;;;93.68;41.95;;;3.70;99.90;;;;;;5074732;28;20261;-48
2022/12/01 03:38:35;;;;;;;94.53;41.65;;;3.70;99.90;;;;;;5073805;28;20204;-49
2022/12/01 03:41:10;;;;;;;104.82;41.92;;;3.80;99.90;;;;;;5074411;28;20624;-49
2022/12/01 03:43:40;;;;;;;91.43;39.72;;;3.50;99.90;;;;;;5074320;28;20234;-48
2022/12/01 03:46:12;;;;;;;97.97;39.58;;;3.80;99.90;;;;;;5074298;28;20195;-48
2022/12/01 03:48:39;;;;;;;102.25;41.53;;;3.60;99.90;;;;;;5073785;28;20648;-48
2022/12/01 03:51:15;;;;;;;101.03;44.08;;;3.70;99.90;;;;;;5074313;28;20214;-48
2022/12/01 03:53:50;;;;;;;89.95;40.88;;;3.40;99.90;;;;;;5074211;28;20215;-48
2022/12/01 03:56:21;;;;;;;87.13;40.42;;;3.70;99.90;;;;;;5074115;28;20210;-48
2022/12/01 03:58:50;;;;;;;80.97;38.05;;;3.30;99.90;;;;;;5073533;28;20619;-48
2022/12/01 04:01:17;;;;;;;94.65;42.22;;;3.50;99.90;;;;;;5074299;28;20245;-49
2022/12/01 04:03:46;;;;;;;88.03;39.63;;;3.40;99.90;;;;;;5074186;28;20230;-49
2022/12/01 04:06:14;;;;;;;88.93;37.83;;;3.40;99.90;;;;;;5074052;28;20629;-50
2022/12/01 04:08:41;;;;;;;98.15;40.58;;;3.60;99.90;;;;;;5055395;28;20218;-50
2022/12/01 04:13:49;;;;;;;94.85;38.47;;;3.50;99.90;;;;;;5054963;28;20309;-48
2022/12/01 04:16:15;;;;;;;89.57;38.30;;;3.60;99.90;;;;;;5073576;28;20219;-50
2022/12/01 04:18:42;;;;;;;78.28;40.40;;;3.60;99.90;;;;;;5073163;28;20732;-48
2022/12/01 04:21:08;;;;;;;91.55;39.85;;;3.60;99.90;;;;;;5074050;28;20199;-47
2022/12/01 04:26:20;;;;;;;103.47;42.25;;;3.40;99.90;;;;;;5073927;28;20321;-48
2022/12/01 04:28:47;;;;;;;95.18;40.15;;;2.90;99.90;;;;;;5073027;28;20206;-49
2022/12/01 04:31:14;;;;;;;100.78;43.28;;;3.60;99.90;;;;;;5072776;28;20569;-50
2022/12/01 04:33:40;;;;;;;86.93;39.95;;;3.50;99.90;;;;;;5073551;28;20630;-49
2022/12/01 04:36:08;;;;;;;92.78;38.78;;;3.10;99.90;;;;;;5073511;28;20280;-49
2022/12/01 04:38:36;;;;;;;92.88;39.97;;;3.20;99.90;;;;;;5072654;28;20199;-48
2022/12/01 04:41:08;;;;;;;86.07;37.10;;;3.10;99.90;;;;;;5073454;28;20668;-50
2022/12/01 04:43:34;;;;;;;91.75;41.10;;;3.20;99.90;;;;;;5098001;22;20246;-50
2022/12/01 04:46:01;;;;;;;86.68;39.85;;;3.10;99.90;;;;;;5073648;28;20545;-50
2022/12/01 04:48:27;;;;;;;91.18;41.17;;;3.20;99.90;;;;;;5073169;28;20219;-50
2022/12/01 04:50:54;;;;;;;83.22;38.72;;;2.90;99.90;;;;;;5073554;28;20206;-50
2022/12/01 04:53:21;;;;;;;79.80;36.90;;;3.50;99.90;;;;;;5073514;28;20588;-51
2022/12/01 04:55:49;;;;;;;81.97;37.65;;;3.40;99.90;;;;;;5073533;28;20218;-50
2022/12/01 04:58:16;;;;;;;82.93;37.25;;;3.20;99.90;;;;;;5055566;28;20195;-50
2022/12/01 05:00:43;;;;;;;76.85;38.90;;;3.40;99.90;;;;;;5073161;28;20545;-50
2022/12/01 05:03:10;;;;;;;81.18;38.90;;;2.60;99.90;;;;;;5073519;28;20600;-49
2022/12/01 05:05:36;;;;;;;77.40;36.20;;;2.90;99.90;;;;;;5073455;28;20203;-49
2022/12/01 05:08:03;;;;;;;72.13;37.03;;;3.00;99.90;;;;;;5073508;28;20226;-50
2022/12/01 05:10:30;;;;;;;85.82;40.00;;;2.90;99.90;;;;;;5072656;28;20199;-49
2022/12/01 05:12:59;;;;;;;77.15;39.40;;;2.90;99.90;;;;;;5073123;28;20226;-49
2022/12/01 05:15:25;;;;;;;82.43;41.15;;;3.10;99.90;;;;;;5073175;28;20235;-50
2022/12/01 05:17:52;;;;;;;81.20;40.13;;;3.40;99.90;;;;;;5073001;28;20219;-51
2022/12/01 05:23:06;;;;;;;78.10;39.42;;;3.10;99.90;;;;;;5073144;28;20307;-50
2022/12/01 05:25:33;;;;;;;89.70;41.95;;;3.40;99.90;;;;;;5073141;28;20200;-51
2022/12/01 05:28:01;;;;;;;87.28;39.92;;;3.20;99.90;;;;;;5054966;28;20191;-50
2022/12/01 05:30:28;;;;;;;82.20;43.55;;;2.60;99.90;;;;;;5054268;28;20235;-50
2022/12/01 05:32:54;;;;;;;88.55;42.33;;;3.30;99.90;;;;;;5072982;28;20222;-49
2022/12/01 05:35:21;;;;;;;85.47;41.38;;;3.10;99.90;;;;;;5073133;28;20195;-49
2022/12/01 05:37:47;;;;;;;84.22;41.97;;;3.60;99.90;;;;;;5073116;28;20215;-49
2022/12/01 05:40:14;;;;;;;102.05;46.97;;;3.40;99.90;;;;;;5072250;28;20207;-50
2022/12/01 05:42:41;;;;;;;84.32;40.78;;;3.30;99.90;;;;;;5072254;28;20199;-50
2022/12/01 05:45:10;;;;;;;86.03;39.67;;;3.30;99.90;;;;;;5072744;28;20203;-50
2022/12/01 05:47:36;;;;;;;84.13;39.45;;;3.10;99.90;;;;;;5072480;28;20675;-50
2022/12/01 05:50:03;;;;;;;78.47;39.92;;;3.00;99.90;;;;;;5071852;28;20199;-51
2022/12/01 05:52:30;;;;;;;78.60;38.03;;;3.30;99.90;;;;;;5072530;28;20207;-51
2022/12/01 05:54:56;;;;;;;83.68;40.05;;;3.00;99.90;;;;;;5072544;28;20192;-50
2022/12/01 05:57:23;;;;;;;83.05;38.70;;;3.10;99.90;;;;;;5072265;28;20229;-50
2022/12/01 05:59:49;;;;;;;80.13;39.58;;;3.30;99.90;;;;;;5071634;28;20553;-50
2022/12/01 06:02:17;;;;;;;81.35;39.55;;;3.10;99.90;;;;;;5072306;28;20268;-50
2022/12/01 06:04:44;;;;;;;87.57;41.15;;;3.30;99.90;;;;;;5072085;28;20230;-49
2022/12/01 06:07:11;;;;;;;75.43;39.40;;;3.30;99.90;;;;;;5054062;28;20203;-51
2022/12/01 06:09:37;;;;;;;71.03;37.47;;;3.30;99.90;;;;;;5071437;28;20203;-50
2022/12/01 06:12:04;;;;;;;68.20;37.22;;;3.50;99.90;;;;;;5071941;28;20675;-50
2022/12/01 06:14:31;;;;;;;74.13;39.83;;;3.50;99.90;;;;;;5072067;28;20211;-51
2022/12/01 06:16:57;;;;;;;90.78;42.20;;;2.70;99.90;;;;;;5072000;28;20310;-50
2022/12/01 06:19:25;;;;;;;79.90;40.70;;;3.40;99.90;;;;;;5071593;28;20199;-51
2022/12/01 06:21:52;;;;;;;76.38;40.70;;;2.90;99.90;;;;;;5071780;28;20203;-50
2022/12/01 06:24:19;;;;;;;76.53;39.92;;;3.50;99.90;;;;;;5071853;28;20212;-50
2022/12/01 06:26:45;;;;;;;85.43;40.80;;;3.10;99.90;;;;;;5072006;28;20487;-50
2022/12/01 06:29:12;;;;;;;75.95;39.75;;;3.10;99.90;;;;;;5071248;28;20191;-51
2022/12/01 06:31:38;;;;;;;75.38;41.63;;;3.30;99.90;;;;;;5071683;28;20206;-50
2022/12/01 06:34:05;;;;;;;76.97;39.65;;;3.10;99.90;;;;;;5071574;28;20212;-49
2022/12/01 06:36:33;;;;;;;84.28;41.92;;;3.30;99.90;;;;;;5071877;28;20211;-51
2022/12/01 06:39:00;;;;;;;92.20;45.22;;;3.00;99.90;;;;;;5070620;28;20203;-50
2022/12/01 06:41:27;;;;;;;91.53;44.40;;;3.10;99.90;;;;;;5071495;28;20663;-50
2022/12/01 06:43:53;;;;;;;87.53;42.15;;;3.20;99.90;;;;;;5071088;28;20222;-51
2022/12/01 06:46:20;;;;;;;86.30;42.10;;;2.90;99.90;;;;;;5071262;28;20256;-50
2022/12/01 06:48:47;;;;;;;87.32;42.00;;;3.00;99.90;;;;;;5071184;28;20199;-50
2022/12/01 06:51:14;;;;;;;87.93;42.33;;;2.90;99.90;;;;;;5071536;28;20333;-51
2022/12/01 06:53:42;;;;;;;83.03;39.97;;;3.10;99.90;;;;;;5072359;28;20219;-50
2022/12/01 06:56:09;;;;;;;87.25;45.53;;;2.80;99.90;;;;;;5075778;28;20315;-50
2022/12/01 06:58:35;;;;;;;98.72;46.45;;;2.80;99.90;;;;;;5075142;28;20667;-50
2022/12/01 07:01:08;;;;;;;89.68;46.03;;;2.40;99.90;;;;;;5075017;28;20200;-49
2022/12/01 07:03:35;;;;;;;97.07;46.08;;;2.90;99.90;;;;;;5075670;28;20257;-50
2022/12/01 07:06:02;;;;;;;94.22;46.03;;;2.20;99.90;;;;;;5075764;28;20206;-49
2022/12/01 07:08:30;;;;;;;106.90;49.60;;;2.20;99.90;;;;;;5074526;28;20221;-50
2022/12/01 07:10:59;;;;;;;94.95;45.55;;;3.00;99.90;;;;;;5075478;28;20200;-50
2022/12/01 07:13:26;;;;;;;94.68;46.85;;;2.70;99.90;;;;;;5075215;28;20222;-52
2022/12/01 07:15:53;;;;;;;94.68;46.97;;;2.70;99.90;;;;;;5056957;28;20226;-51
2022/12/01 07:18:19;;;;;;;97.63;47.72;;;2.80;99.90;;;;;;5056994;28;20246;-51
2022/12/01 07:20:46;;;;;;;102.25;48.55;;;3.20;99.90;;;;;;5056373;28;20210;-49
2022/12/01 07:23:12;;;;;;;108.13;48.67;;;3.10;99.90;;;;;;5075315;28;20219;-50
2022/12/01 07:25:39;;;;;;;107.53;49.65;;;3.10;99.90;;;;;;5075373;28;20192;-50
2022/12/01 07:28:07;;;;;;;114.18;48.88;;;3.20;99.90;;;;;;5074732;28;20629;-51
2022/12/01 07:30:34;;;;;;;110.97;52.70;;;3.30;99.90;;;;;;5074273;28;20195;-51
2022/12/01 07:33:00;;;;;;;119.82;51.78;;;3.10;99.90;;;;;;5074869;28;20219;-49
2022/12/01 07:35:27;;;;;;;123.95;54.03;;;3.30;99.90;;;;;;5074702;28;20601;-51
2022/12/01 07:37:55;;;;;;;136.13;55.00;;;3.30;99.90;;;;;;5075165;28;20226;-50
2022/12/01 07:40:22;;;;;;;129.80;53.47;;;3.20;99.90;;;;;;5074251;28;20597;-50
2022/12/01 07:42:48;;;;;;;140.00;54.58;;;3.20;99.90;;;;;;5074602;28;20202;-49
2022/12/01 07:45:16;;;;;;;128.40;53.38;;;3.10;99.90;;;;;;5074732;28;20205;-50
2022/12/01 07:47:44;;;;;;;128.95;55.20;;;3.10;99.90;;;;;;5056580;28;20191;-51
2022/12/01 07:50:11;;;;;;;146.05;60.33;;;2.90;99.90;;;;;;5073675;28;20326;-50
2022/12/01 07:52:38;;;;;;;142.00;56.40;;;3.00;99.90;;;;;;5074347;28;20195;-51
2022/12/01 07:55:05;;;;;;;137.98;59.25;;;2.60;99.90;;;;;;5056364;28;20207;-50
2022/12/01 07:57:32;;;;;;;141.00;55.92;;;3.10;99.90;;;;;;5056446;28;20223;-49
2022/12/01 07:59:58;;;;;;;130.05;57.03;;;3.10;99.90;;;;;;5074136;28;20298;-50
2022/12/01 08:02:26;;;;;;;134.00;57.30;;;3.30;99.90;;;;;;5075092;28;20195;-50
2022/12/01 08:04:54;;;;;;;144.30;59.70;;;3.30;99.90;;;;;;5055834;28;20223;-49
2022/12/01 08:07:20;;;;;;;134.63;56.22;;;3.40;99.90;;;;;;5074643;28;20199;-50
2022/12/01 08:09:47;;;;;;;131.88;55.13;;;3.30;99.90;;;;;;5073951;28;20195;-50
2022/12/01 08:12:13;;;;;;;132.93;54.35;;;3.50;99.90;;;;;;5074487;28;20228;-50
2022/12/01 08:14:40;;;;;;;120.95;52.53;;;3.60;99.90;;;;;;5074472;28;20215;-50
2022/12/01 08:17:07;;;;;;;142.85;58.28;;;3.40;99.90;;;;;;5074080;28;20578;-50
2022/12/01 08:19:34;;;;;;;139.32;56.28;;;3.20;99.90;;;;;;5055149;28;20206;-49
2022/12/01 08:22:01;;;;;;;131.75;55.17;;;2.80;99.90;;;;;;5073942;28;20268;-52
2022/12/01 08:24:28;;;;;;;120.78;55.15;;;3.40;99.90;;;;;;5073684;28;20226;-50
2022/12/01 08:26:54;;;;;;;126.20;53.45;;;3.20;99.90;;;;;;5073386;28;20369;-51
2022/12/01 08:29:21;;;;;;;125.20;54.13;;;2.70;99.90;;;;;;5073046;28;20554;-50
2022/12/01 08:31:48;;;;;;;120.10;52.53;;;3.50;99.90;;;;;;5073661;28;20199;-50
2022/12/01 08:34:14;;;;;;;128.10;52.72;;;3.50;99.90;;;;;;5073614;28;20215;-49
2022/12/01 08:36:42;;;;;;;130.70;57.28;;;3.20;99.90;;;;;;5073342;28;20206;-50
2022/12/01 08:39:09;;;;;;;125.20;54.78;;;3.40;99.90;;;;;;5073270;28;20200;-51
2022/12/01 08:41:36;;;;;;;126.65;56.03;;;3.30;99.90;;;;;;5055478;28;20573;-50
2022/12/01 08:44:03;;;;;;;133.70;57.22;;;3.50;99.90;;;;;;5073343;28;20644;-51
2022/12/01 08:46:33;;;;;;;135.23;57.42;;;3.30;99.90;;;;;;5055375;28;20206;-50
2022/12/01 08:49:00;;;;;;;127.10;54.95;;;3.30;99.90;;;;;;5072834;28;20203;-49
2022/12/01 08:51:26;;;;;;;138.13;58.95;;;3.40;99.90;;;;;;5073403;28;20203;-49
2022/12/01 08:53:56;;;;;;;138.88;58.00;;;3.40;99.90;;;;;;5073084;28;20291;-51
2022/12/01 08:56:25;;;;;;;143.52;61.30;;;2.80;99.90;;;;;;5073427;28;20273;-50
2022/12/01 08:58:53;;;;;;;140.48;56.58;;;3.40;99.90;;;;;;5072493;28;20223;-49
2022/12/01 09:01:21;;;;;;;129.35;57.53;;;2.80;99.90;;;;;;5073252;28;20207;-49
2022/12/01 09:04:03;;;;;;;144.98;60.90;;;3.50;99.90;;;;;;5055413;28;20223;-50
2022/12/01 09:06:31;;;;;;;132.98;59.22;;;3.60;99.90;;;;;;5073614;28;20199;-51
2022/12/01 09:09:00;;;;;;;133.70;58.55;;;3.30;99.90;;;;;;5072615;28;20191;-51
2022/12/01 09:11:27;;;;;;;142.98;59.58;;;3.50;99.90;;;;;;5073275;28;20240;-50
2022/12/01 09:13:53;;;;;;;127.60;56.95;;;3.30;99.90;;;;;;5073378;28;20215;-50
2022/12/01 09:16:20;;;;;;;143.52;61.15;;;3.60;99.90;;;;;;5072776;28;20206;-50
2022/12/01 09:18:48;;;;;;;132.23;58.83;;;3.30;99.90;;;;;;5072448;28;20219;-50
2022/12/01 09:21:17;;;;;;;133.90;58.35;;;3.60;99.90;;;;;;5072759;28;20191;-49
2022/12/01 09:23:44;;;;;;;140.55;57.83;;;3.50;99.90;;;;;;5054870;28;20226;-51
2022/12/01 09:26:16;;;;;;;127.97;56.88;;;3.50;99.90;;;;;;5072738;28;20203;-50
2022/12/01 09:28:43;;;;;;;122.95;56.45;;;3.40;99.90;;;;;;5071874;28;20234;-51
2022/12/01 09:31:12;;;;;;;134.85;57.08;;;3.50;99.90;;;;;;5072512;28;20199;-50
2022/12/01 09:33:39;;;;;;;124.47;55.53;;;3.40;99.90;;;;;;5072719;28;20583;-51
2022/12/01 09:36:07;;;;;;;115.97;55.22;;;3.40;99.90;;;;;;5072215;28;20199;-50
2022/12/01 09:38:35;;;;;;;114.10;53.20;;;3.30;99.90;;;;;;5071812;28;20226;-51
2022/12/01 09:41:06;;;;;;;127.55;54.65;;;3.20;99.90;;;;;;5072679;28;20188;-51
2022/12/01 09:43:40;;;;;;;114.63;52.30;;;3.40;99.90;;;;;;5072260;28;20730;-51
2022/12/01 09:46:11;;;;;;;114.10;53.20;;;3.50;99.90;;;;;;5072440;28;20195;-51
2022/12/01 09:48:42;;;;;;;108.15;52.78;;;3.40;99.90;;;;;;5071418;28;20530;-50
2022/12/01 09:51:12;;;;;;;114.63;52.30;;;3.40;99.90;;;;;;5072230;28;20203;-51
2022/12/01 09:53:40;;;;;;;106.65;53.20;;;3.40;99.90;;;;;;5071823;28;20223;-51
2022/12/01 09:56:18;;;;;;;98.72;49.65;;;3.30;99.90;;;;;;5054187;28;20306;-51
2022/12/01 09:58:48;;;;;;;109.97;52.28;;;3.10;99.90;;;;;;5071399;28;20315;-51
2022/12/01 10:01:17;;;;;;;106.05;53.38;;;3.40;99.90;;;;;;5054078;28;20215;-50
2022/12/01 10:03:48;;;;;;;119.25;54.80;;;3.70;99.90;;;;;;5071437;28;20268;-50
2022/12/01 10:06:19;;;;;;;107.55;52.53;;;3.20;99.90;;;;;;5053428;28;21022;-50
2022/12/01 10:08:52;;;;;;;105.90;52.05;;;3.60;99.90;;;;;;5070821;28;20199;-51
2022/12/01 10:11:31;;;;;;;110.60;53.13;;;3.60;99.90;;;;;;5071600;28;20202;-50
2022/12/01 10:14:00;;;;;;;112.93;52.60;;;3.90;99.90;;;;;;5071772;28;20215;-49
2022/12/01 10:16:33;;;;;;;111.00;53.35;;;3.80;99.90;;;;;;5071523;28;20231;-49
2022/12/01 10:19:06;;;;;;;107.30;51.67;;;4.10;99.90;;;;;;5071204;28;20215;-50
2022/12/01 10:21:48;;;;;;;103.18;51.85;;;3.20;99.90;;;;;;5071733;28;20565;-51
2022/12/01 10:24:31;;;;;;;103.32;52.00;;;3.90;99.90;;;;;;5071302;28;20227;-51
2022/12/01 10:27:08;;;;;;;99.93;48.72;;;3.80;99.90;;;;;;5053180;28;20563;-51
2022/12/01 10:29:45;;;;;;;100.22;48.97;;;3.90;99.90;;;;;;5070039;28;20195;-50
2022/12/01 10:32:17;;;;;;;97.55;49.15;;;4.00;99.90;;;;;;5071637;28;20282;-50
2022/12/01 10:34:46;;;;;;;97.15;50.30;;;4.00;99.90;;;;;;5071344;28;20288;-51
2022/12/01 10:37:18;;;;;;;97.90;47.92;;;3.30;99.90;;;;;;5071293;28;20199;-52
2022/12/01 10:39:47;;;;;;;106.68;50.58;;;4.00;99.90;;;;;;5070642;28;20195;-51
2022/12/01 10:42:18;;;;;;;87.47;47.65;;;3.60;99.90;;;;;;5071311;28;20202;-51
2022/12/01 10:44:47;;;;;;;90.72;46.72;;;3.40;99.90;;;;;;5094187;22;20344;-48
2022/12/01 10:47:20;;;;;;;90.97;46.22;;;3.80;99.90;;;;;;5070649;28;20195;-47
2022/12/01 10:49:47;;;;;;;91.15;47.92;;;3.80;99.90;;;;;;5070283;28;20226;-46
2022/12/01 10:52:32;;;;;;;93.57;48.30;;;3.70;99.90;;;;;;5070668;28;20210;-49
2022/12/01 10:55:00;;;;;;;83.00;43.38;;;3.80;99.90;;;;;;5070868;28;20214;-48
2022/12/01 10:57:28;;;;;;;87.70;48.22;;;3.30;99.90;;;;;;5070749;28;20656;-47
2022/12/01 11:00:00;;;;;;;95.57;48.30;;;3.80;99.90;;;;;;5070059;28;20206;-47
2022/12/01 11:02:28;;;;;;;82.63;44.47;;;3.70;99.90;;;;;;5071109;28;20191;-47
2022/12/01 11:04:59;;;;;;;89.85;46.38;;;3.90;99.90;;;;;;5070478;28;20226;-49
2022/12/01 11:07:29;;;;;;;86.35;46.15;;;3.90;99.90;;;;;;5071115;28;20214;-47
2022/12/01 11:10:04;;;;;;;97.13;56.47;;;3.50;99.90;;;;;;5068702;28;20422;-48
2022/12/01 11:12:32;;;;;;;93.35;48.92;;;4.20;99.90;;;;;;5070793;28;20246;-48
2022/12/01 11:15:01;;;;;;;96.60;47.38;;;3.70;99.90;;;;;;5070208;28;20230;-48
2022/12/01 11:17:31;;;;;;;91.90;47.00;;;3.80;99.90;;;;;;5070173;28;20210;-47
2022/12/01 11:19:59;;;;;;;87.40;45.45;;;3.90;99.90;;;;;;5069797;28;20664;-47
2022/12/01 11:22:28;;;;;;;82.93;46.47;;;4.10;99.90;;;;;;5070204;28;20591;-46
2022/12/01 11:25:00;;;;;;;85.85;48.70;;;3.40;99.90;;;;;;5070868;28;20246;-49
2022/12/01 11:27:31;;;;;;;80.22;46.50;;;3.80;99.90;;;;;;5070007;28;20199;-48
2022/12/01 11:30:03;;;;;;;81.32;44.60;;;4.20;99.90;;;;;;5069696;28;20200;-47
2022/12/01 11:32:32;;;;;;;81.43;44.08;;;4.10;99.90;;;;;;5070136;28;20207;-48
2022/12/01 11:35:01;;;;;;;80.32;44.17;;;3.80;99.90;;;;;;5070113;28;20225;-48
2022/12/01 11:37:32;;;;;;;84.93;47.60;;;4.50;99.90;;;;;;5069937;28;20530;-46
2022/12/01 11:40:13;;;;;;;85.78;46.00;;;3.50;99.90;;;;;;5069796;28;20445;-48
2022/12/01 11:42:41;;;;;;;81.15;45.17;;;4.10;99.90;;;;;;5073503;28;20202;-48
2022/12/01 11:45:24;;;;;;;75.20;41.65;;;3.80;99.90;;;;;;5073852;28;20305;-49
2022/12/01 11:48:05;;;;;;;71.57;44.75;;;4.00;99.90;;;;;;5073575;28;20503;-46
2022/12/01 11:50:35;;;;;;;70.57;41.97;;;3.90;99.90;;;;;;5073631;28;20206;-48
2022/12/01 11:53:03;;;;;;;85.82;44.28;;;4.20;99.90;;;;;;5073777;28;20279;-46
2022/12/01 11:55:31;;;;;;;78.03;43.50;;;3.80;99.90;;;;;;5073720;28;20191;-49
2022/12/01 11:58:01;;;;;;;75.10;43.90;;;4.20;99.90;;;;;;5073616;28;20237;-48
2022/12/01 12:00:38;;;;;;;81.72;44.30;;;3.80;99.90;;;;;;5072422;28;20199;-47
2022/12/01 12:03:20;;;;;;;80.35;42.75;;;4.00;99.90;;;;;;5073734;28;20217;-45
2022/12/01 12:06:14;;;;;;;73.88;40.15;;;4.00;99.90;;;;;;5073988;28;20753;-47
2022/12/01 12:09:00;;;;;;;68.40;41.45;;;3.90;99.90;;;;;;5072768;28;20570;-48
2022/12/01 12:11:36;;;;;;;68.25;39.58;;;3.90;99.90;;;;;;5073268;28;20553;-47
2022/12/01 12:14:20;;;;;;;67.88;41.67;;;3.80;99.90;;;;;;5073189;28;20691;-47
2022/12/01 12:17:02;;;;;;;65.90;41.20;;;3.90;99.90;;;;;;5053343;28;20199;-47
2022/12/01 12:19:51;;;;;;;71.00;40.83;;;4.00;99.90;;;;;;5052139;28;20258;-48
2022/12/01 12:22:26;;;;;;;69.78;39.90;;;3.30;99.90;;;;;;5035875;28;20688;-47
2022/12/01 12:25:05;;;;;;;65.30;39.72;;;3.70;99.90;;;;;;5054203;28;20225;-46
2022/12/01 12:27:47;;;;;;;73.07;44.15;;;3.30;99.90;;;;;;5053578;28;20920;-44
2022/12/01 12:30:20;;;;;;;68.78;42.60;;;4.00;99.90;;;;;;5052739;28;20203;-47
2022/12/01 12:33:22;;;;;;;70.03;41.97;;;4.10;99.90;;;;;;5053325;28;20203;-45
2022/12/01 12:35:57;;;;;;;64.10;38.78;;;3.90;99.90;;;;;;5050810;28;20269;-46
2022/12/01 12:38:39;;;;;;;72.32;46.50;;;3.80;99.90;;;;;;5052527;28;20452;-46
2022/12/01 12:41:17;;;;;;;67.45;40.90;;;3.90;99.90;;;;;;5053417;28;20274;-46
2022/12/01 12:43:56;;;;;;;70.18;44.03;;;4.10;99.90;;;;;;5052976;28;20251;-46
2022/12/01 12:46:32;;;;;;;70.63;40.85;;;3.90;99.90;;;;;;5053500;28;20199;-47
2022/12/01 12:49:21;;;;;;;71.13;42.50;;;3.80;99.90;;;;;;5052600;28;20531;-45
2022/12/01 12:51:53;;;;;;;66.25;38.85;;;4.10;99.90;;;;;;5052053;28;20580;-46
2022/12/01 12:54:27;;;;;;;66.57;39.75;;;3.80;99.90;;;;;;5053349;28;20319;-45
2022/12/01 12:56:58;;;;;;;64.22;40.05;;;4.00;99.90;;;;;;5053294;28;20678;-45
2022/12/01 12:59:30;;;;;;;67.70;38.42;;;3.60;99.90;;;;;;5052055;28;20253;-47
2022/12/01 13:02:03;;;;;;;64.43;38.38;;;3.60;99.90;;;;;;5052207;28;20581;-48